TimeCDT,TemperatureF,Dew PointF,Humidity,Sea Level PressureIn,VisibilityMPH,Wind Direction,Wind SpeedMPH,Gust SpeedMPH,PrecipitationIn,Events,Conditions,WindDirDegrees,DateUTC
12:15 AM,68.0,48.2,49,29.67,10.0,SW,8.1,-,N/A,,Clear,220,2013-10-01 05:15:00
12:35 AM,69.8,48.2,46,29.67,10.0,SW,3.5,-,N/A,,Clear,220,2013-10-01 05:35:00
12:55 AM,68.0,48.2,49,29.67,10.0,SSW,5.8,-,N/A,,Clear,200,2013-10-01 05:55:00
1:15 AM,68.0,48.2,49,29.67,10.0,SSW,5.8,-,N/A,,Clear,200,2013-10-01 06:15:00
1:35 AM,68.0,48.2,49,29.67,10.0,SSW,4.6,-,N/A,,Clear,210,2013-10-01 06:35:00
1:55 AM,66.2,48.2,52,29.67,10.0,SSW,4.6,-,N/A,,Clear,210,2013-10-01 06:55:00
2:15 AM,66.2,48.2,52,29.66,10.0,SSW,4.6,-,N/A,,Clear,200,2013-10-01 07:15:00
2:35 AM,66.2,48.2,52,29.66,10.0,South,6.9,-,N/A,,Clear,190,2013-10-01 07:35:00
2:55 AM,66.2,48.2,52,29.66,10.0,South,5.8,-,N/A,,Clear,170,2013-10-01 07:55:00
3:15 AM,66.2,50.0,56,29.65,10.0,South,8.1,17.3,N/A,,Clear,190,2013-10-01 08:15:00
3:35 AM,64.4,50.0,59,29.66,10.0,South,5.8,-,N/A,,Clear,180,2013-10-01 08:35:00
3:55 AM,64.4,50.0,59,29.66,10.0,South,4.6,-,N/A,,Clear,180,2013-10-01 08:55:00
4:14 AM,66.2,50.0,56,29.65,10.0,SSE,4.6,-,N/A,,Clear,160,2013-10-01 09:14:00
4:35 AM,64.4,50.0,59,29.65,10.0,South,5.8,-,N/A,,Clear,180,2013-10-01 09:35:00
4:55 AM,64.4,50.0,59,29.66,10.0,South,4.6,-,N/A,,Clear,190,2013-10-01 09:55:00
5:14 AM,66.2,50.0,56,29.66,10.0,SSW,5.8,-,N/A,,Clear,200,2013-10-01 10:14:00
5:35 AM,64.4,50.0,59,29.66,10.0,WSW,8.1,-,N/A,,Clear,240,2013-10-01 10:35:00
5:55 AM,64.4,50.0,59,29.67,10.0,WSW,9.2,16.1,N/A,,Clear,240,2013-10-01 10:55:00
6:14 AM,64.4,51.8,64,29.67,10.0,SW,11.5,-,N/A,,Clear,230,2013-10-01 11:14:00
6:35 AM,64.4,51.8,64,29.67,10.0,WSW,10.4,-,N/A,,Clear,240,2013-10-01 11:35:00
6:55 AM,64.4,51.8,64,29.68,10.0,WSW,8.1,-,N/A,,Clear,240,2013-10-01 11:55:00
7:14 AM,62.6,51.8,68,29.69,10.0,Calm,Calm,-,N/A,,Clear,0,2013-10-01 12:14:00
7:35 AM,62.6,51.8,68,29.69,10.0,Calm,Calm,-,N/A,,Clear,0,2013-10-01 12:35:00
7:55 AM,62.6,51.8,68,29.71,10.0,Calm,Calm,-,N/A,,Clear,0,2013-10-01 12:55:00
8:14 AM,64.4,51.8,64,29.72,10.0,Calm,Calm,-,N/A,,Clear,0,2013-10-01 13:14:00
8:35 AM,64.4,53.6,68,29.73,10.0,WNW,3.5,-,N/A,,Clear,290,2013-10-01 13:35:00
8:55 AM,68.0,53.6,60,29.75,10.0,West,10.4,-,N/A,,Clear,280,2013-10-01 13:55:00
9:14 AM,69.8,53.6,56,29.76,10.0,WNW,11.5,18.4,N/A,,Clear,290,2013-10-01 14:14:00
9:35 AM,68.0,51.8,56,29.77,10.0,WNW,11.5,18.4,N/A,,Clear,290,2013-10-01 14:35:00
9:55 AM,69.8,51.8,53,29.78,10.0,WNW,9.2,-,N/A,,Clear,300,2013-10-01 14:55:00
10:14 AM,69.8,51.8,53,29.79,10.0,WNW,9.2,-,N/A,,Clear,290,2013-10-01 15:14:00
10:35 AM,71.6,46.4,41,29.80,10.0,NW,10.4,17.3,N/A,,Clear,320,2013-10-01 15:35:00
10:55 AM,73.4,44.6,36,29.80,10.0,NW,12.7,19.6,N/A,,Clear,310,2013-10-01 15:55:00
11:15 AM,73.4,44.6,36,29.81,10.0,WNW,12.7,20.7,N/A,,Clear,300,2013-10-01 16:15:00
11:35 AM,73.4,44.6,36,29.82,10.0,NW,11.5,16.1,N/A,,Clear,320,2013-10-01 16:35:00
11:54 AM,73.4,44.6,36,29.83,10.0,NW,10.4,17.3,N/A,,Clear,320,2013-10-01 16:54:00
12:15 PM,75.2,42.8,31,29.84,10.0,WNW,12.7,-,N/A,,Clear,290,2013-10-01 17:15:00
12:35 PM,75.2,41.0,29,29.84,10.0,West,13.8,-,N/A,,Clear,280,2013-10-01 17:35:00
12:54 PM,75.2,41.0,29,29.85,10.0,West,13.8,-,N/A,,Clear,280,2013-10-01 17:54:00
1:15 PM,75.2,37.4,25,29.85,10.0,WNW,12.7,19.6,N/A,,Clear,290,2013-10-01 18:15:00
1:35 PM,75.2,35.6,24,29.85,10.0,WNW,11.5,21.9,N/A,,Clear,300,2013-10-01 18:35:00
1:54 PM,75.2,35.6,24,29.85,10.0,WNW,12.7,18.4,N/A,,Clear,290,2013-10-01 18:54:00
2:15 PM,75.2,35.6,24,29.85,10.0,WNW,10.4,-,N/A,,Clear,300,2013-10-01 19:15:00
2:35 PM,75.2,37.4,25,29.85,10.0,WNW,8.1,-,N/A,,Clear,300,2013-10-01 19:35:00
2:55 PM,75.2,35.6,24,29.86,10.0,WNW,13.8,19.6,N/A,,Clear,290,2013-10-01 19:55:00
3:14 PM,77.0,35.6,22,29.86,10.0,WNW,13.8,18.4,N/A,,Clear,290,2013-10-01 20:14:00
3:35 PM,75.2,33.8,22,29.86,10.0,WNW,9.2,-,N/A,,Clear,300,2013-10-01 20:35:00
3:55 PM,77.0,33.8,21,29.86,10.0,WNW,10.4,-,N/A,,Clear,290,2013-10-01 20:55:00
4:14 PM,77.0,32.0,19,29.86,10.0,WNW,11.5,18.4,N/A,,Clear,300,2013-10-01 21:14:00
4:35 PM,75.2,32.0,21,29.87,10.0,WNW,10.4,18.4,N/A,,Clear,300,2013-10-01 21:35:00
4:55 PM,77.0,30.2,18,29.87,10.0,West,15.0,-,N/A,,Clear,270,2013-10-01 21:55:00
5:14 PM,75.2,32.0,21,29.88,10.0,West,11.5,18.4,N/A,,Clear,280,2013-10-01 22:14:00
5:35 PM,75.2,33.8,22,29.89,10.0,WNW,11.5,17.3,N/A,,Clear,300,2013-10-01 22:35:00
5:55 PM,73.4,33.8,23,29.89,10.0,WNW,9.2,-,N/A,,Clear,290,2013-10-01 22:55:00
6:14 PM,73.4,33.8,23,29.89,10.0,WNW,6.9,-,N/A,,Clear,300,2013-10-01 23:14:00
6:35 PM,69.8,33.8,27,29.89,10.0,WNW,4.6,-,N/A,,Clear,300,2013-10-01 23:35:00
6:55 PM,68.0,33.8,28,29.90,10.0,Calm,Calm,-,N/A,,Clear,0,2013-10-01 23:55:00
7:14 PM,62.6,37.4,39,29.90,10.0,Calm,Calm,-,N/A,,Clear,0,2013-10-02 00:14:00
7:35 PM,59.0,39.2,48,29.91,10.0,North,3.5,-,N/A,,Clear,350,2013-10-02 00:35:00
7:55 PM,55.4,42.8,63,29.92,10.0,North,3.5,-,N/A,,Clear,360,2013-10-02 00:55:00
8:14 PM,53.6,42.8,67,29.93,10.0,Calm,Calm,-,N/A,,Clear,0,2013-10-02 01:14:00
8:35 PM,51.8,42.8,71,29.93,10.0,NNW,3.5,-,N/A,,Clear,340,2013-10-02 01:35:00
8:55 PM,53.6,42.8,67,29.94,10.0,Calm,Calm,-,N/A,,Clear,0,2013-10-02 01:55:00
9:15 PM,51.8,42.8,71,29.94,5.0,Calm,Calm,-,N/A,,Haze,0,2013-10-02 02:15:00
9:35 PM,48.2,42.8,82,29.95,10.0,North,3.5,-,N/A,,Clear,360,2013-10-02 02:35:00
9:55 PM,50.0,42.8,76,29.95,10.0,Calm,Calm,-,N/A,,Clear,0,2013-10-02 02:55:00
10:15 PM,48.2,42.8,82,29.96,10.0,North,3.5,-,N/A,,Clear,360,2013-10-02 03:15:00
10:35 PM,48.2,42.8,82,29.97,10.0,North,4.6,-,N/A,,Clear,360,2013-10-02 03:35:00
10:54 PM,48.2,42.8,82,29.97,10.0,Calm,Calm,-,N/A,,Clear,0,2013-10-02 03:54:00
11:15 PM,46.4,42.8,87,29.98,10.0,Calm,Calm,-,N/A,,Clear,0,2013-10-02 04:15:00
11:35 PM,44.6,42.8,93,29.98,10.0,North,3.5,-,N/A,,Clear,350,2013-10-02 04:35:00
11:54 PM,44.6,42.8,93,29.99,10.0,North,3.5,-,N/A,,Clear,350,2013-10-02 04:54:00